sensor_id;sensor_type;location;lat;lon;timestamp;noise_LAeq;noise_LA_min;noise_LA_max;noise_LA01;noise_LA95
43385;Laerm;28988;48.042;7.584;2023-08-12T00:00:46;84.18;-57.68;94.28;;
43385;Laerm;28988;48.042;7.584;2023-08-12T00:03:12;84.18;-22.68;94.11;;
43385;Laerm;28988;48.042;7.584;2023-08-12T00:05:37;84.18;-23.73;94.29;;
43385;Laerm;28988;48.042;7.584;2023-08-12T00:08:03;84.17;-57.68;93.70;;
43385;Laerm;28988;48.042;7.584;2023-08-12T00:10:28;84.18;-33.10;93.92;;
43385;Laerm;28988;48.042;7.584;2023-08-12T00:12:53;84.18;-28.29;94.25;;
43385;Laerm;28988;48.042;7.584;2023-08-12T00:15:19;84.17;-33.10;93.31;;
43385;Laerm;28988;48.042;7.584;2023-08-12T00:17:44;84.17;-46.21;93.47;;
43385;Laerm;28988;48.042;7.584;2023-08-12T00:20:09;84.17;-57.68;93.68;;
43385;Laerm;28988;48.042;7.584;2023-08-12T00:22:36;84.17;-57.68;93.53;;
43385;Laerm;28988;48.042;7.584;2023-08-12T00:25:01;84.19;-57.68;94.08;;
43385;Laerm;28988;48.042;7.584;2023-08-12T00:27:26;84.18;-57.68;93.84;;
43385;Laerm;28988;48.042;7.584;2023-08-12T00:29:51;84.18;-26.56;94.57;;
43385;Laerm;28988;48.042;7.584;2023-08-12T00:32:17;84.19;-23.73;93.85;;
43385;Laerm;28988;48.042;7.584;2023-08-12T00:34:42;84.17;-57.68;94.15;;
43385;Laerm;28988;48.042;7.584;2023-08-12T00:37:07;84.18;-33.10;94.53;;
43385;Laerm;28988;48.042;7.584;2023-08-12T00:39:32;84.19;-57.68;93.86;;
43385;Laerm;28988;48.042;7.584;2023-08-12T00:41:58;84.17;-33.10;94.29;;
43385;Laerm;28988;48.042;7.584;2023-08-12T00:44:23;84.18;-57.68;93.98;;
43385;Laerm;28988;48.042;7.584;2023-08-12T00:46:48;84.17;-26.87;93.55;;
43385;Laerm;28988;48.042;7.584;2023-08-12T00:49:13;84.18;-57.68;93.70;;
43385;Laerm;28988;48.042;7.584;2023-08-12T00:51:39;84.19;-23.85;93.85;;
43385;Laerm;28988;48.042;7.584;2023-08-12T00:54:06;84.18;-57.68;94.43;;
43385;Laerm;28988;48.042;7.584;2023-08-12T00:56:33;84.18;-57.68;94.17;;
43385;Laerm;28988;48.042;7.584;2023-08-12T00:58:59;84.19;-57.68;94.03;;
43385;Laerm;28988;48.042;7.584;2023-08-12T01:01:25;84.17;-57.68;93.99;;
43385;Laerm;28988;48.042;7.584;2023-08-12T01:03:50;84.18;-57.68;93.65;;
43385;Laerm;28988;48.042;7.584;2023-08-12T01:06:16;84.19;-57.68;94.06;;
43385;Laerm;28988;48.042;7.584;2023-08-12T01:08:41;84.19;-23.73;94.13;;
43385;Laerm;28988;48.042;7.584;2023-08-12T01:11:14;84.18;-28.29;94.02;;
43385;Laerm;28988;48.042;7.584;2023-08-12T01:16:18;84.19;-57.68;94.34;;
43385;Laerm;28988;48.042;7.584;2023-08-12T01:18:45;84.19;-39.66;93.64;;
43385;Laerm;28988;48.042;7.584;2023-08-12T01:21:11;84.20;-28.29;94.49;;
43385;Laerm;28988;48.042;7.584;2023-08-12T01:23:40;84.18;-35.05;93.82;;
43385;Laerm;28988;48.042;7.584;2023-08-12T01:26:06;84.19;-23.73;93.82;;
43385;Laerm;28988;48.042;7.584;2023-08-12T01:28:31;84.19;-57.68;94.00;;
43385;Laerm;28988;48.042;7.584;2023-08-12T01:30:57;84.19;-57.68;93.88;;
43385;Laerm;28988;48.042;7.584;2023-08-12T01:36:12;84.18;-57.68;93.68;;
43385;Laerm;28988;48.042;7.584;2023-08-12T01:38:39;84.18;-38.39;93.70;;
43385;Laerm;28988;48.042;7.584;2023-08-12T01:41:05;84.19;-57.68;93.54;;
43385;Laerm;28988;48.042;7.584;2023-08-12T01:43:31;84.19;-28.29;94.16;;
43385;Laerm;28988;48.042;7.584;2023-08-12T01:45:57;84.18;-57.68;93.84;;
43385;Laerm;28988;48.042;7.584;2023-08-12T01:48:22;84.18;-28.29;93.76;;
43385;Laerm;28988;48.042;7.584;2023-08-12T01:50:48;84.18;-57.68;94.80;;
43385;Laerm;28988;48.042;7.584;2023-08-12T01:53:13;84.18;-34.16;94.43;;
43385;Laerm;28988;48.042;7.584;2023-08-12T01:55:40;84.20;-22.86;94.58;;
43385;Laerm;28988;48.042;7.584;2023-08-12T01:58:05;84.18;-23.73;93.65;;
43385;Laerm;28988;48.042;7.584;2023-08-12T02:00:31;84.19;-34.16;94.00;;
43385;Laerm;28988;48.042;7.584;2023-08-12T02:02:56;84.19;-57.68;93.96;;
43385;Laerm;28988;48.042;7.584;2023-08-12T02:05:21;84.18;-24.67;94.12;;
43385;Laerm;28988;48.042;7.584;2023-08-12T02:07:46;84.19;-57.68;93.86;;
43385;Laerm;28988;48.042;7.584;2023-08-12T02:10:11;84.18;-23.73;93.97;;
43385;Laerm;28988;48.042;7.584;2023-08-12T02:12:39;84.18;-33.10;93.80;;
43385;Laerm;28988;48.042;7.584;2023-08-12T02:15:04;84.18;-28.29;94.31;;
43385;Laerm;28988;48.042;7.584;2023-08-12T02:17:29;84.19;-28.29;93.83;;
43385;Laerm;28988;48.042;7.584;2023-08-12T02:19:55;84.20;-57.68;93.99;;
43385;Laerm;28988;48.042;7.584;2023-08-12T02:22:20;84.18;-34.16;93.71;;
43385;Laerm;28988;48.042;7.584;2023-08-12T02:24:45;84.20;-57.68;93.86;;
43385;Laerm;28988;48.042;7.584;2023-08-12T02:27:10;84.18;-57.68;94.14;;
43385;Laerm;28988;48.042;7.584;2023-08-12T02:29:36;84.19;-33.10;93.65;;
43385;Laerm;28988;48.042;7.584;2023-08-12T02:32:02;84.18;-57.68;94.24;;
43385;Laerm;28988;48.042;7.584;2023-08-12T02:34:27;84.18;-33.10;93.79;;
43385;Laerm;28988;48.042;7.584;2023-08-12T02:36:52;84.18;-57.68;93.91;;
43385;Laerm;28988;48.042;7.584;2023-08-12T02:39:17;84.19;-57.68;94.15;;
43385;Laerm;28988;48.042;7.584;2023-08-12T02:41:42;84.19;-57.68;93.82;;
43385;Laerm;28988;48.042;7.584;2023-08-12T02:44:08;84.20;-57.68;94.42;;
43385;Laerm;28988;48.042;7.584;2023-08-12T02:46:33;84.19;-34.16;94.01;;
43385;Laerm;28988;48.042;7.584;2023-08-12T02:48:58;84.18;-57.68;94.01;;
43385;Laerm;28988;48.042;7.584;2023-08-12T02:51:23;84.18;-38.65;93.98;;
43385;Laerm;28988;48.042;7.584;2023-08-12T02:53:48;84.19;-28.29;93.82;;
43385;Laerm;28988;48.042;7.584;2023-08-12T02:56:13;84.21;-23.73;94.12;;
43385;Laerm;28988;48.042;7.584;2023-08-12T02:58:39;84.19;-57.68;93.80;;
43385;Laerm;28988;48.042;7.584;2023-08-12T03:01:04;84.18;-57.68;93.69;;
43385;Laerm;28988;48.042;7.584;2023-08-12T03:03:29;84.18;-23.73;94.11;;
43385;Laerm;28988;48.042;7.584;2023-08-12T03:05:54;84.19;-57.68;94.10;;
43385;Laerm;28988;48.042;7.584;2023-08-12T03:08:19;84.20;-57.68;94.30;;
43385;Laerm;28988;48.042;7.584;2023-08-12T03:10:44;84.19;-57.68;94.33;;
43385;Laerm;28988;48.042;7.584;2023-08-12T03:13:10;84.20;-57.68;94.24;;
43385;Laerm;28988;48.042;7.584;2023-08-12T03:15:37;84.20;-23.73;93.95;;
43385;Laerm;28988;48.042;7.584;2023-08-12T03:18:03;84.19;-33.10;94.16;;
43385;Laerm;28988;48.042;7.584;2023-08-12T03:20:28;84.18;-34.16;93.70;;
43385;Laerm;28988;48.042;7.584;2023-08-12T03:22:53;84.18;-41.49;94.01;;
43385;Laerm;28988;48.042;7.584;2023-08-12T03:25:18;84.20;-57.68;94.33;;
43385;Laerm;28988;48.042;7.584;2023-08-12T03:27:44;84.18;-30.89;93.82;;
43385;Laerm;28988;48.042;7.584;2023-08-12T03:30:09;84.19;-28.29;93.51;;
43385;Laerm;28988;48.042;7.584;2023-08-12T03:32:35;84.19;-57.68;94.57;;
43385;Laerm;28988;48.042;7.584;2023-08-12T03:35:00;84.19;-22.63;93.53;;
43385;Laerm;28988;48.042;7.584;2023-08-12T03:37:25;84.19;-57.68;93.82;;
43385;Laerm;28988;48.042;7.584;2023-08-12T03:39:51;84.19;-57.68;93.36;;
43385;Laerm;28988;48.042;7.584;2023-08-12T03:42:16;84.19;-57.68;94.34;;
43385;Laerm;28988;48.042;7.584;2023-08-12T03:44:42;84.20;-28.66;94.77;;
43385;Laerm;28988;48.042;7.584;2023-08-12T03:47:07;84.19;-57.68;94.00;;
43385;Laerm;28988;48.042;7.584;2023-08-12T03:49:32;84.20;-57.68;94.30;;
43385;Laerm;28988;48.042;7.584;2023-08-12T03:51:57;84.20;-57.68;93.68;;
43385;Laerm;28988;48.042;7.584;2023-08-12T03:54:22;84.18;-24.48;94.11;;
43385;Laerm;28988;48.042;7.584;2023-08-12T03:56:48;84.19;-23.73;93.80;;
43385;Laerm;28988;48.042;7.584;2023-08-12T03:59:13;84.20;-33.10;94.50;;
43385;Laerm;28988;48.042;7.584;2023-08-12T04:01:38;84.19;-33.10;94.16;;
43385;Laerm;28988;48.042;7.584;2023-08-12T04:04:03;84.19;-57.68;93.85;;
43385;Laerm;28988;48.042;7.584;2023-08-12T04:06:29;84.19;-24.69;93.85;;
43385;Laerm;28988;48.042;7.584;2023-08-12T04:08:54;84.19;-26.87;93.66;;
43385;Laerm;28988;48.042;7.584;2023-08-12T04:11:19;84.19;-57.68;93.53;;
43385;Laerm;28988;48.042;7.584;2023-08-12T04:13:44;84.19;-57.68;93.96;;
43385;Laerm;28988;48.042;7.584;2023-08-12T04:16:09;84.20;-23.73;94.00;;
43385;Laerm;28988;48.042;7.584;2023-08-12T04:18:35;84.20;-57.68;93.86;;
43385;Laerm;28988;48.042;7.584;2023-08-12T04:21:00;84.19;-28.29;93.82;;
43385;Laerm;28988;48.042;7.584;2023-08-12T04:23:25;84.18;-38.65;93.65;;
43385;Laerm;28988;48.042;7.584;2023-08-12T04:25:52;84.19;-45.84;94.42;;
43385;Laerm;28988;48.042;7.584;2023-08-12T04:28:17;84.18;-28.29;93.77;;
43385;Laerm;28988;48.042;7.584;2023-08-12T04:30:43;84.20;-57.68;94.05;;
43385;Laerm;28988;48.042;7.584;2023-08-12T04:33:09;84.20;-28.29;94.40;;
43385;Laerm;28988;48.042;7.584;2023-08-12T04:35:34;84.18;-57.68;94.23;;
43385;Laerm;28988;48.042;7.584;2023-08-12T04:37:59;84.18;-28.29;93.93;;
43385;Laerm;28988;48.042;7.584;2023-08-12T04:40:24;84.20;-57.68;94.35;;
43385;Laerm;28988;48.042;7.584;2023-08-12T04:42:49;84.19;-33.10;93.86;;
43385;Laerm;28988;48.042;7.584;2023-08-12T04:45:15;84.20;-39.04;94.82;;
43385;Laerm;28988;48.042;7.584;2023-08-12T04:47:40;84.20;-23.73;94.23;;
43385;Laerm;28988;48.042;7.584;2023-08-12T04:50:05;84.19;-34.15;94.37;;
43385;Laerm;28988;48.042;7.584;2023-08-12T04:52:31;84.19;-41.49;93.81;;
43385;Laerm;28988;48.042;7.584;2023-08-12T04:54:56;84.21;-57.68;94.38;;
43385;Laerm;28988;48.042;7.584;2023-08-12T04:57:21;84.19;-57.68;94.41;;
43385;Laerm;28988;48.042;7.584;2023-08-12T04:59:47;84.21;-23.73;94.94;;
43385;Laerm;28988;48.042;7.584;2023-08-12T05:02:12;84.20;-57.68;94.56;;
43385;Laerm;28988;48.042;7.584;2023-08-12T05:04:37;84.19;-33.10;94.01;;
43385;Laerm;28988;48.042;7.584;2023-08-12T05:07:02;84.19;-39.70;94.26;;
43385;Laerm;28988;48.042;7.584;2023-08-12T05:09:27;84.20;-57.68;94.11;;
43385;Laerm;28988;48.042;7.584;2023-08-12T05:11:53;84.19;-57.68;93.53;;
43385;Laerm;28988;48.042;7.584;2023-08-12T05:14:18;84.18;-33.10;94.01;;
43385;Laerm;28988;48.042;7.584;2023-08-12T05:16:43;84.19;-51.23;93.96;;
43385;Laerm;28988;48.042;7.584;2023-08-12T05:19:08;84.19;-57.68;93.84;;
43385;Laerm;28988;48.042;7.584;2023-08-12T05:21:33;84.18;-33.10;93.60;;
43385;Laerm;28988;48.042;7.584;2023-08-12T05:23:58;84.18;-57.68;93.99;;
43385;Laerm;28988;48.042;7.584;2023-08-12T05:26:24;84.20;-57.68;93.66;;
43385;Laerm;28988;48.042;7.584;2023-08-12T05:28:49;84.17;-34.16;93.84;;
43385;Laerm;28988;48.042;7.584;2023-08-12T05:31:14;84.19;-57.68;94.54;;
43385;Laerm;28988;48.042;7.584;2023-08-12T05:33:39;84.18;-57.68;94.61;;
43385;Laerm;28988;48.042;7.584;2023-08-12T05:36:04;84.18;-57.68;93.95;;
43385;Laerm;28988;48.042;7.584;2023-08-12T05:38:29;84.19;-33.10;94.11;;
43385;Laerm;28988;48.042;7.584;2023-08-12T05:40:55;84.21;-57.68;93.82;;
43385;Laerm;28988;48.042;7.584;2023-08-12T05:43:20;84.20;-33.10;94.15;;
43385;Laerm;28988;48.042;7.584;2023-08-12T05:45:45;84.21;-67.21;94.09;;
43385;Laerm;28988;48.042;7.584;2023-08-12T05:48:10;84.22;-57.68;94.29;;
43385;Laerm;28988;48.042;7.584;2023-08-12T05:50:35;84.22;-28.29;94.39;;
43385;Laerm;28988;48.042;7.584;2023-08-12T05:53:01;84.22;-23.73;94.76;;
43385;Laerm;28988;48.042;7.584;2023-08-12T05:55:26;84.21;-57.68;93.99;;
43385;Laerm;28988;48.042;7.584;2023-08-12T05:57:51;84.22;-33.10;94.29;;
43385;Laerm;28988;48.042;7.584;2023-08-12T06:00:16;84.22;-33.10;94.69;;
43385;Laerm;28988;48.042;7.584;2023-08-12T06:02:41;84.20;-57.68;94.40;;
43385;Laerm;28988;48.042;7.584;2023-08-12T06:05:07;84.21;-23.73;94.14;;
43385;Laerm;28988;48.042;7.584;2023-08-12T06:07:32;84.20;-57.68;93.79;;
43385;Laerm;28988;48.042;7.584;2023-08-12T06:09:57;84.20;-57.68;94.10;;
43385;Laerm;28988;48.042;7.584;2023-08-12T06:12:22;84.19;-20.71;93.91;;
43385;Laerm;28988;48.042;7.584;2023-08-12T06:14:48;84.19;-57.68;93.86;;
43385;Laerm;28988;48.042;7.584;2023-08-12T06:17:13;84.19;-33.10;94.27;;
43385;Laerm;28988;48.042;7.584;2023-08-12T06:19:38;84.17;-57.68;93.35;;
43385;Laerm;28988;48.042;7.584;2023-08-12T06:22:03;84.18;-22.63;93.96;;
43385;Laerm;28988;48.042;7.584;2023-08-12T06:24:28;84.18;-23.73;93.84;;
43385;Laerm;28988;48.042;7.584;2023-08-12T06:26:54;84.18;-57.68;93.53;;
43385;Laerm;28988;48.042;7.584;2023-08-12T06:29:19;84.17;-57.68;93.65;;
43385;Laerm;28988;48.042;7.584;2023-08-12T06:31:44;84.18;-57.68;94.65;;
43385;Laerm;28988;48.042;7.584;2023-08-12T06:34:09;84.17;-57.68;93.85;;
43385;Laerm;28988;48.042;7.584;2023-08-12T06:36:35;84.18;-57.68;93.79;;
43385;Laerm;28988;48.042;7.584;2023-08-12T06:39:00;84.16;-57.68;93.91;;
43385;Laerm;28988;48.042;7.584;2023-08-12T06:41:25;84.17;-33.10;93.18;;
43385;Laerm;28988;48.042;7.584;2023-08-12T06:43:50;84.16;-57.68;93.66;;
43385;Laerm;28988;48.042;7.584;2023-08-12T06:46:15;84.15;-57.68;93.48;;
43385;Laerm;28988;48.042;7.584;2023-08-12T06:48:40;84.17;-57.68;93.68;;
43385;Laerm;28988;48.042;7.584;2023-08-12T06:51:06;84.15;-23.73;93.35;;
43385;Laerm;28988;48.042;7.584;2023-08-12T06:53:37;84.15;-28.29;93.21;;
43385;Laerm;28988;48.042;7.584;2023-08-12T06:56:03;84.17;-57.68;93.53;;
43385;Laerm;28988;48.042;7.584;2023-08-12T06:58:28;84.17;-20.24;93.36;;
43385;Laerm;28988;48.042;7.584;2023-08-12T07:00:54;84.16;-34.16;93.80;;
43385;Laerm;28988;48.042;7.584;2023-08-12T07:03:19;84.16;-33.10;93.60;;
43385;Laerm;28988;48.042;7.584;2023-08-12T07:05:44;84.15;-33.10;93.53;;
43385;Laerm;28988;48.042;7.584;2023-08-12T07:08:09;84.16;-57.68;93.50;;
43385;Laerm;28988;48.042;7.584;2023-08-12T07:10:37;84.16;-57.68;93.40;;
43385;Laerm;28988;48.042;7.584;2023-08-12T07:13:02;84.15;-23.73;93.32;;
43385;Laerm;28988;48.042;7.584;2023-08-12T07:15:27;84.16;-57.68;93.38;;
43385;Laerm;28988;48.042;7.584;2023-08-12T07:17:52;84.15;-22.68;93.40;;
43385;Laerm;28988;48.042;7.584;2023-08-12T07:20:18;84.15;-57.68;93.38;;
43385;Laerm;28988;48.042;7.584;2023-08-12T07:22:43;84.15;-33.10;93.27;;
43385;Laerm;28988;48.042;7.584;2023-08-12T07:25:08;84.14;-57.68;93.47;;
43385;Laerm;28988;48.042;7.584;2023-08-12T07:27:33;84.15;-57.68;93.04;;
43385;Laerm;28988;48.042;7.584;2023-08-12T07:29:59;84.15;-23.73;93.60;;
43385;Laerm;28988;48.042;7.584;2023-08-12T07:32:24;84.15;-57.68;93.70;;
43385;Laerm;28988;48.042;7.584;2023-08-12T07:34:49;84.14;-57.68;93.76;;
43385;Laerm;28988;48.042;7.584;2023-08-12T07:37:14;84.15;-57.68;93.31;;
43385;Laerm;28988;48.042;7.584;2023-08-12T07:39:39;84.15;-57.68;93.40;;
43385;Laerm;28988;48.042;7.584;2023-08-12T07:42:05;84.16;-33.10;93.91;;
43385;Laerm;28988;48.042;7.584;2023-08-12T07:44:30;84.16;-57.68;93.53;;
43385;Laerm;28988;48.042;7.584;2023-08-12T07:46:55;84.16;-57.68;93.80;;
43385;Laerm;28988;48.042;7.584;2023-08-12T07:49:21;84.15;-34.16;94.18;;
43385;Laerm;28988;48.042;7.584;2023-08-12T07:51:46;84.16;-57.68;93.35;;
43385;Laerm;28988;48.042;7.584;2023-08-12T07:54:11;84.16;-28.29;93.69;;
43385;Laerm;28988;48.042;7.584;2023-08-12T07:56:37;84.16;-28.29;93.49;;
43385;Laerm;28988;48.042;7.584;2023-08-12T07:59:02;84.16;-31.18;93.18;;
43385;Laerm;28988;48.042;7.584;2023-08-12T08:01:28;84.16;-57.68;93.18;;
43385;Laerm;28988;48.042;7.584;2023-08-12T08:03:53;84.15;-23.73;93.31;;
43385;Laerm;28988;48.042;7.584;2023-08-12T08:06:18;84.16;-28.29;93.71;;
43385;Laerm;28988;48.042;7.584;2023-08-12T08:08:43;84.15;-23.73;93.65;;
43385;Laerm;28988;48.042;7.584;2023-08-12T08:11:08;84.15;-57.68;93.57;;
43385;Laerm;28988;48.042;7.584;2023-08-12T08:13:34;84.16;-57.68;93.31;;
43385;Laerm;28988;48.042;7.584;2023-08-12T08:15:59;84.17;-28.29;93.84;;
43385;Laerm;28988;48.042;7.584;2023-08-12T08:18:24;84.16;-26.87;93.76;;
43385;Laerm;28988;48.042;7.584;2023-08-12T08:20:49;84.16;-28.29;93.53;;
43385;Laerm;28988;48.042;7.584;2023-08-12T08:23:14;84.16;-57.68;93.24;;
43385;Laerm;28988;48.042;7.584;2023-08-12T08:25:39;84.15;-57.68;93.70;;
43385;Laerm;28988;48.042;7.584;2023-08-12T08:28:05;84.16;-57.68;93.25;;
43385;Laerm;28988;48.042;7.584;2023-08-12T08:30:30;84.16;-23.73;93.66;;
43385;Laerm;28988;48.042;7.584;2023-08-12T08:32:55;84.15;-57.68;93.27;;
43385;Laerm;28988;48.042;7.584;2023-08-12T08:35:20;84.16;-57.68;93.48;;
43385;Laerm;28988;48.042;7.584;2023-08-12T08:37:45;84.15;-57.68;93.78;;
43385;Laerm;28988;48.042;7.584;2023-08-12T08:40:11;84.15;-57.68;93.47;;
43385;Laerm;28988;48.042;7.584;2023-08-12T08:42:37;84.16;-28.29;93.64;;
43385;Laerm;28988;48.042;7.584;2023-08-12T08:45:02;84.15;-57.68;93.42;;
43385;Laerm;28988;48.042;7.584;2023-08-12T08:47:31;84.14;-33.10;93.22;;
43385;Laerm;28988;48.042;7.584;2023-08-12T08:49:56;84.14;-33.46;93.03;;
43385;Laerm;28988;48.042;7.584;2023-08-12T08:52:22;84.14;-57.68;93.22;;
43385;Laerm;28988;48.042;7.584;2023-08-12T08:54:48;84.14;-57.68;93.31;;
43385;Laerm;28988;48.042;7.584;2023-08-12T08:57:13;84.14;-57.68;93.22;;
43385;Laerm;28988;48.042;7.584;2023-08-12T08:59:38;84.14;-57.68;92.93;;
43385;Laerm;28988;48.042;7.584;2023-08-12T09:02:04;84.15;-22.68;93.03;;
43385;Laerm;28988;48.042;7.584;2023-08-12T09:04:30;84.14;-28.29;93.18;;
43385;Laerm;28988;48.042;7.584;2023-08-12T09:06:55;84.15;-57.68;93.36;;
43385;Laerm;28988;48.042;7.584;2023-08-12T09:09:21;84.15;-33.10;93.18;;
43385;Laerm;28988;48.042;7.584;2023-08-12T09:11:48;84.15;-57.68;93.45;;
43385;Laerm;28988;48.042;7.584;2023-08-12T09:14:14;84.14;-57.68;93.31;;
43385;Laerm;28988;48.042;7.584;2023-08-12T09:16:39;84.14;-57.68;93.57;;
43385;Laerm;28988;48.042;7.584;2023-08-12T09:19:05;84.15;-33.10;93.22;;
43385;Laerm;28988;48.042;7.584;2023-08-12T09:21:30;84.14;-57.68;93.06;;
43385;Laerm;28988;48.042;7.584;2023-08-12T09:23:55;84.15;-57.68;93.27;;
43385;Laerm;28988;48.042;7.584;2023-08-12T09:26:21;84.15;-57.68;93.45;;
43385;Laerm;28988;48.042;7.584;2023-08-12T09:28:46;84.14;-57.68;93.53;;
43385;Laerm;28988;48.042;7.584;2023-08-12T09:31:21;84.14;-57.68;93.22;;
43385;Laerm;28988;48.042;7.584;2023-08-12T09:33:46;84.14;-33.10;93.40;;
43385;Laerm;28988;48.042;7.584;2023-08-12T09:36:11;84.14;-57.68;93.04;;
43385;Laerm;28988;48.042;7.584;2023-08-12T09:38:37;84.14;-57.68;93.04;;
43385;Laerm;28988;48.042;7.584;2023-08-12T09:41:02;84.15;-36.13;93.58;;
43385;Laerm;28988;48.042;7.584;2023-08-12T09:43:28;84.15;-34.16;93.17;;
43385;Laerm;28988;48.042;7.584;2023-08-12T09:45:55;84.13;-33.10;93.18;;
43385;Laerm;28988;48.042;7.584;2023-08-12T09:48:20;84.14;-33.10;93.39;;
43385;Laerm;28988;48.042;7.584;2023-08-12T09:50:45;84.14;-36.13;93.12;;
43385;Laerm;28988;48.042;7.584;2023-08-12T09:53:11;84.21;-29.79;93.50;;
43385;Laerm;28988;48.042;7.584;2023-08-12T09:55:36;85.03;-37.47;94.32;;
43385;Laerm;28988;48.042;7.584;2023-08-12T09:58:03;90.44;-14.06;98.52;;
43385;Laerm;28988;48.042;7.584;2023-08-12T10:00:31;93.86;-45.56;99.39;;
43385;Laerm;28988;48.042;7.584;2023-08-12T10:02:56;84.25;-57.18;96.11;;
43385;Laerm;28988;48.042;7.584;2023-08-12T10:05:24;80.61;-44.11;91.93;;
43385;Laerm;28988;48.042;7.584;2023-08-12T10:07:52;79.78;-34.30;90.92;;
43385;Laerm;28988;48.042;7.584;2023-08-12T10:10:17;80.13;-31.09;90.11;;
43385;Laerm;28988;48.042;7.584;2023-08-12T10:12:43;80.01;-65.75;90.52;;
43385;Laerm;28988;48.042;7.584;2023-08-12T10:15:09;79.60;-45.39;90.66;;
43385;Laerm;28988;48.042;7.584;2023-08-12T10:17:34;79.44;-45.05;89.63;;
43385;Laerm;28988;48.042;7.584;2023-08-12T10:20:01;80.27;-63.53;91.40;;
43385;Laerm;28988;48.042;7.584;2023-08-12T10:22:28;82.11;-49.36;94.13;;
43385;Laerm;28988;48.042;7.584;2023-08-12T10:24:54;86.89;-44.55;97.53;;
43385;Laerm;28988;48.042;7.584;2023-08-12T10:27:19;94.05;-29.65;99.44;;
43385;Laerm;28988;48.042;7.584;2023-08-12T10:29:45;93.42;-29.82;99.05;;
43385;Laerm;28988;48.042;7.584;2023-08-12T10:32:11;88.06;-35.58;95.69;;
43385;Laerm;28988;48.042;7.584;2023-08-12T10:34:36;85.08;-25.53;94.06;;
43385;Laerm;28988;48.042;7.584;2023-08-12T10:37:02;84.41;-39.48;93.96;;
43385;Laerm;28988;48.042;7.584;2023-08-12T10:39:28;84.22;-28.46;93.40;;
43385;Laerm;28988;48.042;7.584;2023-08-12T10:41:56;84.17;-40.41;93.56;;
43385;Laerm;28988;48.042;7.584;2023-08-12T10:44:22;84.15;-32.21;93.22;;
43385;Laerm;28988;48.042;7.584;2023-08-12T10:46:51;84.13;-27.28;93.11;;
43385;Laerm;28988;48.042;7.584;2023-08-12T10:49:18;84.15;-23.73;93.27;;
43385;Laerm;28988;48.042;7.584;2023-08-12T10:54:21;84.14;-57.68;92.99;;
43385;Laerm;28988;48.042;7.584;2023-08-12T11:05:00;84.13;-20.71;93.13;;
43385;Laerm;28988;48.042;7.584;2023-08-12T11:09:56;84.15;-20.71;93.30;;
43385;Laerm;28988;48.042;7.584;2023-08-12T11:12:33;84.14;-37.10;93.13;;
43385;Laerm;28988;48.042;7.584;2023-08-12T11:14:58;84.13;-40.51;93.17;;
43385;Laerm;28988;48.042;7.584;2023-08-12T11:17:29;84.14;-23.06;93.51;;
43385;Laerm;28988;48.042;7.584;2023-08-12T11:19:55;84.13;-31.77;93.42;;
43385;Laerm;28988;48.042;7.584;2023-08-12T11:22:20;84.15;-57.68;93.99;;
43385;Laerm;28988;48.042;7.584;2023-08-12T11:24:45;84.17;-33.10;94.46;;
43385;Laerm;28988;48.042;7.584;2023-08-12T11:27:11;84.19;-26.87;93.84;;
43385;Laerm;28988;48.042;7.584;2023-08-12T11:29:37;84.20;-25.76;94.04;;
43385;Laerm;28988;48.042;7.584;2023-08-12T11:32:02;84.18;-28.29;93.64;;
43385;Laerm;28988;48.042;7.584;2023-08-12T11:34:27;84.18;-23.73;93.82;;
43385;Laerm;28988;48.042;7.584;2023-08-12T11:36:53;84.17;-57.68;93.50;;
43385;Laerm;28988;48.042;7.584;2023-08-12T11:39:19;84.18;-57.68;93.57;;
43385;Laerm;28988;48.042;7.584;2023-08-12T11:41:44;84.16;-57.68;93.86;;
43385;Laerm;28988;48.042;7.584;2023-08-12T11:44:15;84.17;-33.10;93.36;;
43385;Laerm;28988;48.042;7.584;2023-08-12T11:46:41;84.16;-57.68;93.21;;
43385;Laerm;28988;48.042;7.584;2023-08-12T11:49:06;84.14;-57.68;93.59;;
43385;Laerm;28988;48.042;7.584;2023-08-12T11:51:31;84.16;-57.68;93.51;;
43385;Laerm;28988;48.042;7.584;2023-08-12T11:53:57;84.15;-33.10;93.34;;
43385;Laerm;28988;48.042;7.584;2023-08-12T11:56:22;84.14;-28.29;93.36;;
43385;Laerm;28988;48.042;7.584;2023-08-12T11:58:51;84.14;-36.13;93.50;;
43385;Laerm;28988;48.042;7.584;2023-08-12T12:01:16;84.15;-57.68;93.36;;
43385;Laerm;28988;48.042;7.584;2023-08-12T12:03:41;84.14;-29.33;93.43;;
43385;Laerm;28988;48.042;7.584;2023-08-12T12:06:06;84.15;-40.41;93.37;;
43385;Laerm;28988;48.042;7.584;2023-08-12T12:08:32;84.17;-34.15;94.18;;
43385;Laerm;28988;48.042;7.584;2023-08-12T12:10:57;84.19;-22.68;93.49;;
43385;Laerm;28988;48.042;7.584;2023-08-12T12:13:29;84.23;-49.17;93.23;;
43385;Laerm;28988;48.042;7.584;2023-08-12T12:15:54;84.63;-25.75;93.93;;
43385;Laerm;28988;48.042;7.584;2023-08-12T12:18:20;87.30;-52.03;96.18;;
43385;Laerm;28988;48.042;7.584;2023-08-12T12:23:19;86.68;-36.65;97.57;;
43385;Laerm;28988;48.042;7.584;2023-08-12T12:25:45;81.64;-72.12;93.51;;
43385;Laerm;28988;48.042;7.584;2023-08-12T12:28:10;79.71;-65.29;90.17;;
43385;Laerm;28988;48.042;7.584;2023-08-12T12:30:35;78.76;-80.34;89.14;;
43385;Laerm;28988;48.042;7.584;2023-08-12T12:33:01;78.48;-50.17;88.98;;
43385;Laerm;28988;48.042;7.584;2023-08-12T12:35:26;78.35;-50.99;88.46;;
43385;Laerm;28988;48.042;7.584;2023-08-12T12:37:51;78.63;-40.84;89.93;;
43385;Laerm;28988;48.042;7.584;2023-08-12T12:40:16;79.68;-37.58;89.70;;
43385;Laerm;28988;48.042;7.584;2023-08-12T12:42:42;81.77;-43.59;93.59;;
43385;Laerm;28988;48.042;7.584;2023-08-12T12:45:07;84.47;-32.69;95.46;;
43385;Laerm;28988;48.042;7.584;2023-08-12T12:47:32;87.91;-40.74;97.38;;
43385;Laerm;28988;48.042;7.584;2023-08-12T12:49:58;89.05;-29.77;97.61;;
43385;Laerm;28988;48.042;7.584;2023-08-12T12:52:23;92.36;-28.94;99.12;;
43385;Laerm;28988;48.042;7.584;2023-08-12T12:54:48;94.46;-32.28;99.51;;
43385;Laerm;28988;48.042;7.584;2023-08-12T12:57:13;94.96;-21.38;99.55;;
43385;Laerm;28988;48.042;7.584;2023-08-12T12:59:39;95.18;-28.46;99.17;;
43385;Laerm;28988;48.042;7.584;2023-08-12T13:02:04;95.22;-36.26;99.19;;
43385;Laerm;28988;48.042;7.584;2023-08-12T13:04:29;94.49;-27.79;99.81;;
43385;Laerm;28988;48.042;7.584;2023-08-12T13:06:55;89.89;-33.07;98.53;;
43385;Laerm;28988;48.042;7.584;2023-08-12T13:09:21;84.21;-49.66;96.33;;
43385;Laerm;28988;48.042;7.584;2023-08-12T13:11:46;81.56;-52.58;93.38;;
43385;Laerm;28988;48.042;7.584;2023-08-12T13:14:11;81.54;-33.04;91.33;;
43385;Laerm;28988;48.042;7.584;2023-08-12T13:16:36;81.69;-46.45;92.38;;
43385;Laerm;28988;48.042;7.584;2023-08-12T13:19:02;82.92;-35.05;93.99;;
43385;Laerm;28988;48.042;7.584;2023-08-12T13:21:27;84.26;-48.98;95.04;;
43385;Laerm;28988;48.042;7.584;2023-08-12T13:23:52;86.24;-30.03;96.34;;
43385;Laerm;28988;48.042;7.584;2023-08-12T13:26:18;89.52;-30.42;98.29;;
43385;Laerm;28988;48.042;7.584;2023-08-12T13:28:43;92.65;-39.25;99.14;;
43385;Laerm;28988;48.042;7.584;2023-08-12T13:31:09;92.79;-38.33;99.31;;
43385;Laerm;28988;48.042;7.584;2023-08-12T13:33:34;85.79;-32.12;96.93;;
43385;Laerm;28988;48.042;7.584;2023-08-12T13:35:59;80.30;-61.57;91.11;;
43385;Laerm;28988;48.042;7.584;2023-08-12T13:38:24;78.56;-32.19;88.89;;
43385;Laerm;28988;48.042;7.584;2023-08-12T13:40:50;78.31;-54.27;88.85;;
43385;Laerm;28988;48.042;7.584;2023-08-12T13:43:15;78.22;-50.99;88.68;;